sensor_id;sensor_type;location;lat;lon;timestamp;P1;durP1;ratioP1;P2;durP2;ratioP2
6388;SDS011;3227;42.654;23.360;2023-04-24T00:00:23;9.90;;;6.33;;
6388;SDS011;3227;42.654;23.360;2023-04-24T00:02:51;11.70;;;6.57;;
6388;SDS011;3227;42.654;23.360;2023-04-24T00:05:23;9.63;;;5.90;;
6388;SDS011;3227;42.654;23.360;2023-04-24T00:07:51;11.13;;;6.10;;
6388;SDS011;3227;42.654;23.360;2023-04-24T00:10:19;11.53;;;6.73;;
6388;SDS011;3227;42.654;23.360;2023-04-24T00:12:46;12.70;;;6.33;;
6388;SDS011;3227;42.654;23.360;2023-04-24T00:15:13;11.60;;;7.00;;
6388;SDS011;3227;42.654;23.360;2023-04-24T00:17:40;10.87;;;7.00;;
6388;SDS011;3227;42.654;23.360;2023-04-24T00:20:07;9.43;;;6.60;;
6388;SDS011;3227;42.654;23.360;2023-04-24T00:22:38;15.57;;;6.63;;
6388;SDS011;3227;42.654;23.360;2023-04-24T00:25:05;13.40;;;6.30;;
6388;SDS011;3227;42.654;23.360;2023-04-24T00:27:32;10.90;;;6.00;;
6388;SDS011;3227;42.654;23.360;2023-04-24T00:30:00;9.77;;;6.30;;
6388;SDS011;3227;42.654;23.360;2023-04-24T00:32:27;10.70;;;5.60;;
6388;SDS011;3227;42.654;23.360;2023-04-24T00:34:54;10.50;;;5.53;;
6388;SDS011;3227;42.654;23.360;2023-04-24T00:37:21;10.63;;;5.60;;
6388;SDS011;3227;42.654;23.360;2023-04-24T00:39:49;10.27;;;5.30;;
6388;SDS011;3227;42.654;23.360;2023-04-24T00:42:16;9.13;;;5.10;;
6388;SDS011;3227;42.654;23.360;2023-04-24T00:44:43;10.30;;;5.70;;
6388;SDS011;3227;42.654;23.360;2023-04-24T00:47:10;8.93;;;5.23;;
6388;SDS011;3227;42.654;23.360;2023-04-24T00:49:39;11.67;;;5.63;;
6388;SDS011;3227;42.654;23.360;2023-04-24T00:52:05;9.90;;;5.97;;
6388;SDS011;3227;42.654;23.360;2023-04-24T00:54:34;10.63;;;5.87;;
6388;SDS011;3227;42.654;23.360;2023-04-24T00:57:02;9.43;;;5.97;;
6388;SDS011;3227;42.654;23.360;2023-04-24T00:59:30;11.13;;;5.83;;
6388;SDS011;3227;42.654;23.360;2023-04-24T01:01:57;10.23;;;5.73;;
6388;SDS011;3227;42.654;23.360;2023-04-24T01:04:24;12.03;;;5.73;;
6388;SDS011;3227;42.654;23.360;2023-04-24T01:06:52;14.43;;;6.17;;
6388;SDS011;3227;42.654;23.360;2023-04-24T01:09:21;9.13;;;5.33;;
6388;SDS011;3227;42.654;23.360;2023-04-24T01:11:49;9.40;;;5.93;;
6388;SDS011;3227;42.654;23.360;2023-04-24T01:14:18;13.67;;;6.23;;
6388;SDS011;3227;42.654;23.360;2023-04-24T01:16:45;10.77;;;6.10;;
6388;SDS011;3227;42.654;23.360;2023-04-24T01:19:12;11.63;;;6.37;;
6388;SDS011;3227;42.654;23.360;2023-04-24T01:21:41;13.73;;;6.07;;
6388;SDS011;3227;42.654;23.360;2023-04-24T01:24:10;11.73;;;5.80;;
6388;SDS011;3227;42.654;23.360;2023-04-24T01:26:38;10.17;;;6.17;;
6388;SDS011;3227;42.654;23.360;2023-04-24T01:29:05;14.00;;;6.70;;
6388;SDS011;3227;42.654;23.360;2023-04-24T01:31:31;12.83;;;6.60;;
6388;SDS011;3227;42.654;23.360;2023-04-24T01:33:59;10.83;;;7.10;;
6388;SDS011;3227;42.654;23.360;2023-04-24T01:36:27;11.20;;;6.30;;
6388;SDS011;3227;42.654;23.360;2023-04-24T01:38:55;11.50;;;6.27;;
6388;SDS011;3227;42.654;23.360;2023-04-24T01:41:23;11.27;;;6.07;;
6388;SDS011;3227;42.654;23.360;2023-04-24T01:43:51;9.33;;;6.20;;
6388;SDS011;3227;42.654;23.360;2023-04-24T01:46:18;9.93;;;5.77;;
6388;SDS011;3227;42.654;23.360;2023-04-24T01:48:45;10.17;;;6.20;;
6388;SDS011;3227;42.654;23.360;2023-04-24T01:51:12;13.73;;;6.60;;
6388;SDS011;3227;42.654;23.360;2023-04-24T01:53:39;12.17;;;6.57;;
6388;SDS011;3227;42.654;23.360;2023-04-24T01:56:05;12.03;;;6.43;;
6388;SDS011;3227;42.654;23.360;2023-04-24T01:58:34;11.97;;;7.13;;
6388;SDS011;3227;42.654;23.360;2023-04-24T02:01:01;9.87;;;6.30;;
6388;SDS011;3227;42.654;23.360;2023-04-24T02:03:30;10.63;;;5.90;;
6388;SDS011;3227;42.654;23.360;2023-04-24T02:05:56;10.37;;;6.23;;
6388;SDS011;3227;42.654;23.360;2023-04-24T02:08:23;9.57;;;6.70;;
6388;SDS011;3227;42.654;23.360;2023-04-24T02:10:50;11.80;;;6.80;;
6388;SDS011;3227;42.654;23.360;2023-04-24T02:13:17;10.73;;;6.70;;
6388;SDS011;3227;42.654;23.360;2023-04-24T02:15:45;12.17;;;6.50;;
6388;SDS011;3227;42.654;23.360;2023-04-24T02:18:12;11.27;;;6.07;;
6388;SDS011;3227;42.654;23.360;2023-04-24T02:20:40;9.63;;;6.07;;
6388;SDS011;3227;42.654;23.360;2023-04-24T02:23:07;11.53;;;6.10;;
6388;SDS011;3227;42.654;23.360;2023-04-24T02:25:34;9.57;;;6.63;;
6388;SDS011;3227;42.654;23.360;2023-04-24T02:28:01;10.07;;;6.20;;
6388;SDS011;3227;42.654;23.360;2023-04-24T02:30:28;12.93;;;6.50;;
6388;SDS011;3227;42.654;23.360;2023-04-24T02:32:56;17.13;;;7.00;;
6388;SDS011;3227;42.654;23.360;2023-04-24T02:35:23;13.10;;;6.57;;
6388;SDS011;3227;42.654;23.360;2023-04-24T02:37:49;13.43;;;7.50;;
6388;SDS011;3227;42.654;23.360;2023-04-24T02:40:16;10.13;;;6.10;;
6388;SDS011;3227;42.654;23.360;2023-04-24T02:42:43;14.43;;;7.10;;
6388;SDS011;3227;42.654;23.360;2023-04-24T02:45:10;17.43;;;6.60;;
6388;SDS011;3227;42.654;23.360;2023-04-24T02:47:37;10.03;;;6.60;;
6388;SDS011;3227;42.654;23.360;2023-04-24T02:50:06;9.60;;;6.27;;
6388;SDS011;3227;42.654;23.360;2023-04-24T02:52:34;14.13;;;7.10;;
6388;SDS011;3227;42.654;23.360;2023-04-24T02:55:01;12.83;;;6.67;;
6388;SDS011;3227;42.654;23.360;2023-04-24T02:57:28;12.90;;;6.63;;
6388;SDS011;3227;42.654;23.360;2023-04-24T02:59:55;9.60;;;6.80;;
6388;SDS011;3227;42.654;23.360;2023-04-24T03:02:22;12.00;;;6.83;;
6388;SDS011;3227;42.654;23.360;2023-04-24T03:04:48;12.90;;;7.07;;
6388;SDS011;3227;42.654;23.360;2023-04-24T03:07:16;10.20;;;6.77;;
6388;SDS011;3227;42.654;23.360;2023-04-24T03:09:45;10.70;;;6.67;;
6388;SDS011;3227;42.654;23.360;2023-04-24T03:12:13;14.77;;;6.70;;
6388;SDS011;3227;42.654;23.360;2023-04-24T03:14:39;15.07;;;7.87;;
6388;SDS011;3227;42.654;23.360;2023-04-24T03:17:06;11.97;;;6.77;;
6388;SDS011;3227;42.654;23.360;2023-04-24T03:19:33;18.07;;;7.50;;
6388;SDS011;3227;42.654;23.360;2023-04-24T03:22:01;16.70;;;7.13;;
6388;SDS011;3227;42.654;23.360;2023-04-24T03:24:29;16.37;;;7.53;;
6388;SDS011;3227;42.654;23.360;2023-04-24T03:26:56;19.63;;;7.53;;
6388;SDS011;3227;42.654;23.360;2023-04-24T03:29:23;16.83;;;7.07;;
6388;SDS011;3227;42.654;23.360;2023-04-24T03:31:50;23.83;;;8.40;;
6388;SDS011;3227;42.654;23.360;2023-04-24T03:34:17;17.53;;;7.47;;
6388;SDS011;3227;42.654;23.360;2023-04-24T03:36:44;16.50;;;7.00;;
6388;SDS011;3227;42.654;23.360;2023-04-24T03:39:12;27.40;;;8.93;;
6388;SDS011;3227;42.654;23.360;2023-04-24T03:41:40;19.50;;;8.27;;
6388;SDS011;3227;42.654;23.360;2023-04-24T03:44:07;15.63;;;7.93;;
6388;SDS011;3227;42.654;23.360;2023-04-24T03:46:37;19.83;;;8.83;;
6388;SDS011;3227;42.654;23.360;2023-04-24T03:49:04;21.67;;;9.07;;
6388;SDS011;3227;42.654;23.360;2023-04-24T03:51:31;20.07;;;9.27;;
6388;SDS011;3227;42.654;23.360;2023-04-24T03:53:57;21.63;;;8.47;;
6388;SDS011;3227;42.654;23.360;2023-04-24T03:56:24;20.80;;;8.67;;
6388;SDS011;3227;42.654;23.360;2023-04-24T03:58:52;12.50;;;7.87;;
6388;SDS011;3227;42.654;23.360;2023-04-24T04:01:19;20.87;;;8.47;;
6388;SDS011;3227;42.654;23.360;2023-04-24T04:03:46;20.03;;;8.80;;
6388;SDS011;3227;42.654;23.360;2023-04-24T04:06:16;19.27;;;7.60;;
6388;SDS011;3227;42.654;23.360;2023-04-24T04:08:43;25.23;;;8.00;;
6388;SDS011;3227;42.654;23.360;2023-04-24T04:11:10;19.87;;;7.80;;
6388;SDS011;3227;42.654;23.360;2023-04-24T04:13:36;21.40;;;9.47;;
6388;SDS011;3227;42.654;23.360;2023-04-24T04:16:05;18.10;;;8.80;;
6388;SDS011;3227;42.654;23.360;2023-04-24T04:18:33;18.80;;;8.13;;
6388;SDS011;3227;42.654;23.360;2023-04-24T04:21:02;18.47;;;8.00;;
6388;SDS011;3227;42.654;23.360;2023-04-24T04:23:29;16.43;;;8.07;;
6388;SDS011;3227;42.654;23.360;2023-04-24T04:25:57;14.27;;;7.90;;
6388;SDS011;3227;42.654;23.360;2023-04-24T04:28:24;16.90;;;8.50;;
6388;SDS011;3227;42.654;23.360;2023-04-24T04:30:51;20.70;;;8.63;;
6388;SDS011;3227;42.654;23.360;2023-04-24T04:33:20;17.07;;;8.20;;
6388;SDS011;3227;42.654;23.360;2023-04-24T04:35:47;19.13;;;8.87;;
6388;SDS011;3227;42.654;23.360;2023-04-24T04:38:14;18.33;;;7.63;;
6388;SDS011;3227;42.654;23.360;2023-04-24T04:40:42;17.20;;;7.50;;
6388;SDS011;3227;42.654;23.360;2023-04-24T04:43:09;15.97;;;7.23;;
6388;SDS011;3227;42.654;23.360;2023-04-24T04:45:36;13.60;;;8.10;;
6388;SDS011;3227;42.654;23.360;2023-04-24T04:48:04;15.90;;;7.33;;
6388;SDS011;3227;42.654;23.360;2023-04-24T04:50:34;16.90;;;6.87;;
6388;SDS011;3227;42.654;23.360;2023-04-24T04:53:00;22.50;;;7.90;;
6388;SDS011;3227;42.654;23.360;2023-04-24T04:55:27;20.07;;;7.57;;
6388;SDS011;3227;42.654;23.360;2023-04-24T04:57:54;14.50;;;7.40;;
6388;SDS011;3227;42.654;23.360;2023-04-24T05:00:22;22.33;;;7.47;;
6388;SDS011;3227;42.654;23.360;2023-04-24T05:02:50;16.53;;;7.27;;
6388;SDS011;3227;42.654;23.360;2023-04-24T05:05:17;21.40;;;7.50;;
6388;SDS011;3227;42.654;23.360;2023-04-24T05:07:46;24.93;;;7.40;;
6388;SDS011;3227;42.654;23.360;2023-04-24T05:10:13;18.97;;;6.90;;
6388;SDS011;3227;42.654;23.360;2023-04-24T05:12:40;13.90;;;6.47;;
6388;SDS011;3227;42.654;23.360;2023-04-24T05:15:07;12.73;;;6.80;;
6388;SDS011;3227;42.654;23.360;2023-04-24T05:17:34;15.57;;;6.23;;
6388;SDS011;3227;42.654;23.360;2023-04-24T05:20:01;23.00;;;6.87;;
6388;SDS011;3227;42.654;23.360;2023-04-24T05:22:28;19.23;;;7.37;;
6388;SDS011;3227;42.654;23.360;2023-04-24T05:24:56;12.77;;;6.63;;
6388;SDS011;3227;42.654;23.360;2023-04-24T05:27:23;14.27;;;6.13;;
6388;SDS011;3227;42.654;23.360;2023-04-24T05:29:50;17.87;;;6.57;;
6388;SDS011;3227;42.654;23.360;2023-04-24T05:32:17;12.97;;;6.83;;
6388;SDS011;3227;42.654;23.360;2023-04-24T05:34:44;18.60;;;6.90;;
6388;SDS011;3227;42.654;23.360;2023-04-24T05:37:11;12.33;;;6.70;;
6388;SDS011;3227;42.654;23.360;2023-04-24T05:39:38;11.83;;;6.37;;
6388;SDS011;3227;42.654;23.360;2023-04-24T05:42:07;10.57;;;6.00;;
6388;SDS011;3227;42.654;23.360;2023-04-24T05:44:34;11.33;;;6.83;;
6388;SDS011;3227;42.654;23.360;2023-04-24T05:47:01;10.07;;;6.80;;
6388;SDS011;3227;42.654;23.360;2023-04-24T05:49:28;11.60;;;6.60;;
6388;SDS011;3227;42.654;23.360;2023-04-24T05:51:54;14.17;;;6.70;;
6388;SDS011;3227;42.654;23.360;2023-04-24T05:54:21;20.60;;;7.23;;
6388;SDS011;3227;42.654;23.360;2023-04-24T05:56:48;15.30;;;6.77;;
6388;SDS011;3227;42.654;23.360;2023-04-24T05:59:17;15.17;;;6.37;;
6388;SDS011;3227;42.654;23.360;2023-04-24T06:01:44;15.53;;;7.40;;
6388;SDS011;3227;42.654;23.360;2023-04-24T06:04:11;21.37;;;7.30;;
6388;SDS011;3227;42.654;23.360;2023-04-24T06:06:39;12.63;;;6.80;;
6388;SDS011;3227;42.654;23.360;2023-04-24T06:09:06;13.70;;;7.37;;
6388;SDS011;3227;42.654;23.360;2023-04-24T06:11:33;13.17;;;6.73;;
6388;SDS011;3227;42.654;23.360;2023-04-24T06:14:00;11.63;;;7.00;;
6388;SDS011;3227;42.654;23.360;2023-04-24T06:16:28;15.37;;;7.00;;
6388;SDS011;3227;42.654;23.360;2023-04-24T06:18:56;14.07;;;7.50;;
6388;SDS011;3227;42.654;23.360;2023-04-24T06:21:23;11.63;;;7.20;;
6388;SDS011;3227;42.654;23.360;2023-04-24T06:23:50;10.40;;;7.00;;
6388;SDS011;3227;42.654;23.360;2023-04-24T06:26:17;16.00;;;8.00;;
6388;SDS011;3227;42.654;23.360;2023-04-24T06:28:45;15.87;;;7.73;;
6388;SDS011;3227;42.654;23.360;2023-04-24T06:31:12;14.47;;;7.23;;
6388;SDS011;3227;42.654;23.360;2023-04-24T06:33:40;15.90;;;8.17;;
6388;SDS011;3227;42.654;23.360;2023-04-24T06:36:07;21.00;;;9.30;;
6388;SDS011;3227;42.654;23.360;2023-04-24T06:38:34;15.90;;;8.40;;
6388;SDS011;3227;42.654;23.360;2023-04-24T06:41:01;15.03;;;8.83;;
6388;SDS011;3227;42.654;23.360;2023-04-24T06:43:28;13.20;;;8.43;;
6388;SDS011;3227;42.654;23.360;2023-04-24T06:45:55;12.80;;;8.40;;
6388;SDS011;3227;42.654;23.360;2023-04-24T06:48:22;21.55;;;9.10;;
6388;SDS011;3227;42.654;23.360;2023-04-24T06:50:50;21.00;;;8.88;;
6388;SDS011;3227;42.654;23.360;2023-04-24T06:53:17;18.17;;;8.73;;
6388;SDS011;3227;42.654;23.360;2023-04-24T06:55:44;20.27;;;8.47;;
6388;SDS011;3227;42.654;23.360;2023-04-24T06:58:11;16.55;;;8.55;;
6388;SDS011;3227;42.654;23.360;2023-04-24T07:00:38;15.27;;;8.10;;
6388;SDS011;3227;42.654;23.360;2023-04-24T07:03:05;14.30;;;8.53;;
6388;SDS011;3227;42.654;23.360;2023-04-24T07:05:32;17.27;;;8.20;;
6388;SDS011;3227;42.654;23.360;2023-04-24T07:08:01;17.65;;;8.18;;
6388;SDS011;3227;42.654;23.360;2023-04-24T07:10:29;16.58;;;7.85;;
6388;SDS011;3227;42.654;23.360;2023-04-24T07:12:56;13.38;;;7.90;;
6388;SDS011;3227;42.654;23.360;2023-04-24T07:15:22;14.32;;;7.65;;
6388;SDS011;3227;42.654;23.360;2023-04-24T07:17:49;15.30;;;7.82;;
6388;SDS011;3227;42.654;23.360;2023-04-24T07:20:16;15.60;;;8.23;;
6388;SDS011;3227;42.654;23.360;2023-04-24T07:22:43;18.25;;;10.63;;
6388;SDS011;3227;42.654;23.360;2023-04-24T07:25:11;20.38;;;9.13;;
6388;SDS011;3227;42.654;23.360;2023-04-24T07:27:38;15.68;;;7.40;;
6388;SDS011;3227;42.654;23.360;2023-04-24T07:30:05;13.60;;;7.50;;
6388;SDS011;3227;42.654;23.360;2023-04-24T07:32:33;14.60;;;8.10;;
6388;SDS011;3227;42.654;23.360;2023-04-24T07:35:00;12.18;;;7.65;;
6388;SDS011;3227;42.654;23.360;2023-04-24T07:37:27;14.05;;;7.72;;
6388;SDS011;3227;42.654;23.360;2023-04-24T07:39:54;16.40;;;7.10;;
6388;SDS011;3227;42.654;23.360;2023-04-24T07:42:22;13.25;;;7.10;;
6388;SDS011;3227;42.654;23.360;2023-04-24T07:44:49;17.20;;;7.78;;
6388;SDS011;3227;42.654;23.360;2023-04-24T07:47:16;13.70;;;7.90;;
6388;SDS011;3227;42.654;23.360;2023-04-24T07:49:43;14.80;;;7.47;;
6388;SDS011;3227;42.654;23.360;2023-04-24T07:52:10;14.23;;;7.85;;
6388;SDS011;3227;42.654;23.360;2023-04-24T07:54:36;13.85;;;7.55;;
6388;SDS011;3227;42.654;23.360;2023-04-24T07:57:03;12.70;;;7.18;;
6388;SDS011;3227;42.654;23.360;2023-04-24T07:59:33;13.23;;;7.65;;
6388;SDS011;3227;42.654;23.360;2023-04-24T08:02:00;19.08;;;7.30;;
6388;SDS011;3227;42.654;23.360;2023-04-24T08:04:27;11.35;;;7.32;;
6388;SDS011;3227;42.654;23.360;2023-04-24T08:06:53;12.27;;;7.57;;
6388;SDS011;3227;42.654;23.360;2023-04-24T08:09:20;12.35;;;6.95;;
6388;SDS011;3227;42.654;23.360;2023-04-24T08:11:47;10.70;;;6.53;;
6388;SDS011;3227;42.654;23.360;2023-04-24T08:14:14;12.68;;;7.05;;
6388;SDS011;3227;42.654;23.360;2023-04-24T08:16:42;13.60;;;7.30;;
6388;SDS011;3227;42.654;23.360;2023-04-24T08:19:09;13.90;;;7.30;;
6388;SDS011;3227;42.654;23.360;2023-04-24T08:21:36;10.88;;;7.10;;
6388;SDS011;3227;42.654;23.360;2023-04-24T08:24:03;16.00;;;7.07;;
6388;SDS011;3227;42.654;23.360;2023-04-24T08:26:32;17.35;;;7.57;;
6388;SDS011;3227;42.654;23.360;2023-04-24T08:29:04;15.93;;;7.40;;
6388;SDS011;3227;42.654;23.360;2023-04-24T08:31:32;16.08;;;7.78;;
6388;SDS011;3227;42.654;23.360;2023-04-24T08:34:00;14.20;;;7.53;;
6388;SDS011;3227;42.654;23.360;2023-04-24T08:36:27;13.77;;;7.30;;
6388;SDS011;3227;42.654;23.360;2023-04-24T08:38:54;12.40;;;7.20;;
6388;SDS011;3227;42.654;23.360;2023-04-24T08:41:21;14.60;;;7.20;;
6388;SDS011;3227;42.654;23.360;2023-04-24T08:43:51;12.77;;;6.97;;
6388;SDS011;3227;42.654;23.360;2023-04-24T08:46:18;13.77;;;6.50;;
6388;SDS011;3227;42.654;23.360;2023-04-24T08:48:46;12.93;;;6.55;;
6388;SDS011;3227;42.654;23.360;2023-04-24T08:51:14;14.23;;;6.93;;
6388;SDS011;3227;42.654;23.360;2023-04-24T08:53:41;9.80;;;6.00;;
6388;SDS011;3227;42.654;23.360;2023-04-24T08:56:09;14.67;;;6.43;;
6388;SDS011;3227;42.654;23.360;2023-04-24T08:58:38;15.23;;;7.00;;
6388;SDS011;3227;42.654;23.360;2023-04-24T09:01:05;13.05;;;6.30;;
6388;SDS011;3227;42.654;23.360;2023-04-24T09:03:33;12.98;;;6.80;;
6388;SDS011;3227;42.654;23.360;2023-04-24T09:06:00;9.73;;;6.05;;
6388;SDS011;3227;42.654;23.360;2023-04-24T09:08:35;14.10;;;6.20;;
6388;SDS011;3227;42.654;23.360;2023-04-24T09:11:02;12.40;;;6.13;;
6388;SDS011;3227;42.654;23.360;2023-04-24T09:13:30;11.75;;;6.75;;
6388;SDS011;3227;42.654;23.360;2023-04-24T09:15:58;11.65;;;6.28;;
6388;SDS011;3227;42.654;23.360;2023-04-24T09:18:25;8.73;;;5.95;;
6388;SDS011;3227;42.654;23.360;2023-04-24T09:21:00;20.27;;;7.43;;
6388;SDS011;3227;42.654;23.360;2023-04-24T09:23:28;12.05;;;6.03;;
6388;SDS011;3227;42.654;23.360;2023-04-24T09:25:56;12.23;;;6.38;;
6388;SDS011;3227;42.654;23.360;2023-04-24T09:28:31;13.60;;;6.30;;
6388;SDS011;3227;42.654;23.360;2023-04-24T09:31:02;13.18;;;6.40;;
6388;SDS011;3227;42.654;23.360;2023-04-24T09:33:30;10.32;;;6.28;;
6388;SDS011;3227;42.654;23.360;2023-04-24T09:35:57;9.60;;;5.45;;
6388;SDS011;3227;42.654;23.360;2023-04-24T09:38:31;9.70;;;5.95;;
6388;SDS011;3227;42.654;23.360;2023-04-24T09:41:00;11.30;;;6.20;;
6388;SDS011;3227;42.654;23.360;2023-04-24T09:43:29;9.55;;;5.80;;
6388;SDS011;3227;42.654;23.360;2023-04-24T09:45:56;11.43;;;5.70;;
6388;SDS011;3227;42.654;23.360;2023-04-24T09:48:30;11.30;;;5.88;;
6388;SDS011;3227;42.654;23.360;2023-04-24T09:51:00;11.40;;;5.50;;
6388;SDS011;3227;42.654;23.360;2023-04-24T09:53:29;10.45;;;5.88;;
6388;SDS011;3227;42.654;23.360;2023-04-24T09:55:56;10.60;;;6.07;;
6388;SDS011;3227;42.654;23.360;2023-04-24T09:58:34;11.27;;;5.72;;
6388;SDS011;3227;42.654;23.360;2023-04-24T10:01:01;15.05;;;6.20;;
6388;SDS011;3227;42.654;23.360;2023-04-24T10:03:29;11.83;;;6.00;;
6388;SDS011;3227;42.654;23.360;2023-04-24T10:05:58;14.63;;;5.13;;
6388;SDS011;3227;42.654;23.360;2023-04-24T10:08:32;9.48;;;5.80;;
6388;SDS011;3227;42.654;23.360;2023-04-24T10:11:00;10.73;;;5.80;;
6388;SDS011;3227;42.654;23.360;2023-04-24T10:13:29;11.10;;;6.13;;
6388;SDS011;3227;42.654;23.360;2023-04-24T10:15:56;13.52;;;5.97;;
6388;SDS011;3227;42.654;23.360;2023-04-24T10:18:27;13.05;;;6.63;;
6388;SDS011;3227;42.654;23.360;2023-04-24T10:20:55;13.70;;;6.00;;
6388;SDS011;3227;42.654;23.360;2023-04-24T10:23:22;10.95;;;5.75;;
6388;SDS011;3227;42.654;23.360;2023-04-24T10:25:52;10.93;;;5.65;;
6388;SDS011;3227;42.654;23.360;2023-04-24T10:28:20;12.15;;;5.70;;
6388;SDS011;3227;42.654;23.360;2023-04-24T10:30:49;11.85;;;5.60;;
6388;SDS011;3227;42.654;23.360;2023-04-24T10:33:17;11.15;;;5.65;;
6388;SDS011;3227;42.654;23.360;2023-04-24T10:35:45;10.10;;;5.50;;
6388;SDS011;3227;42.654;23.360;2023-04-24T10:38:17;12.90;;;5.60;;
6388;SDS011;3227;42.654;23.360;2023-04-24T10:40:49;9.10;;;5.47;;
6388;SDS011;3227;42.654;23.360;2023-04-24T10:43:16;10.63;;;5.20;;
6388;SDS011;3227;42.654;23.360;2023-04-24T10:48:37;11.73;;;5.55;;
6388;SDS011;3227;42.654;23.360;2023-04-24T10:51:11;9.98;;;4.95;;
6388;SDS011;3227;42.654;23.360;2023-04-24T10:53:38;9.50;;;5.50;;
6388;SDS011;3227;42.654;23.360;2023-04-24T10:56:05;10.82;;;5.00;;
6388;SDS011;3227;42.654;23.360;2023-04-24T10:58:38;8.40;;;5.05;;
6388;SDS011;3227;42.654;23.360;2023-04-24T11:01:11;9.27;;;5.28;;
6388;SDS011;3227;42.654;23.360;2023-04-24T11:03:54;9.23;;;4.93;;
6388;SDS011;3227;42.654;23.360;2023-04-24T11:06:28;9.85;;;5.20;;
6388;SDS011;3227;42.654;23.360;2023-04-24T11:09:02;9.93;;;4.88;;
6388;SDS011;3227;42.654;23.360;2023-04-24T11:11:31;9.88;;;4.90;;
6388;SDS011;3227;42.654;23.360;2023-04-24T11:14:08;8.13;;;4.80;;
6388;SDS011;3227;42.654;23.360;2023-04-24T11:16:44;12.07;;;4.88;;
6388;SDS011;3227;42.654;23.360;2023-04-24T11:19:20;11.07;;;4.55;;
6388;SDS011;3227;42.654;23.360;2023-04-24T11:21:55;9.52;;;5.03;;
6388;SDS011;3227;42.654;23.360;2023-04-24T11:24:25;13.48;;;4.72;;
6388;SDS011;3227;42.654;23.360;2023-04-24T11:26:57;9.68;;;4.55;;
6388;SDS011;3227;42.654;23.360;2023-04-24T11:29:42;9.77;;;4.55;;
6388;SDS011;3227;42.654;23.360;2023-04-24T11:32:17;13.55;;;4.65;;
6388;SDS011;3227;42.654;23.360;2023-04-24T11:34:47;9.02;;;4.60;;
6388;SDS011;3227;42.654;23.360;2023-04-24T11:37:15;16.48;;;4.80;;
6388;SDS011;3227;42.654;23.360;2023-04-24T11:39:42;9.50;;;4.35;;
6388;SDS011;3227;42.654;23.360;2023-04-24T11:42:10;10.88;;;4.25;;
6388;SDS011;3227;42.654;23.360;2023-04-24T11:44:41;10.00;;;3.90;;
6388;SDS011;3227;42.654;23.360;2023-04-24T11:47:08;11.32;;;4.20;;
6388;SDS011;3227;42.654;23.360;2023-04-24T11:49:36;8.90;;;4.03;;
6388;SDS011;3227;42.654;23.360;2023-04-24T11:52:05;7.32;;;4.60;;
6388;SDS011;3227;42.654;23.360;2023-04-24T11:54:32;7.22;;;4.10;;
6388;SDS011;3227;42.654;23.360;2023-04-24T11:56:59;6.22;;;3.90;;
6388;SDS011;3227;42.654;23.360;2023-04-24T11:59:34;13.73;;;5.18;;
6388;SDS011;3227;42.654;23.360;2023-04-24T12:02:02;12.32;;;4.60;;
6388;SDS011;3227;42.654;23.360;2023-04-24T12:04:37;6.97;;;4.40;;
6388;SDS011;3227;42.654;23.360;2023-04-24T12:07:06;10.35;;;5.00;;
6388;SDS011;3227;42.654;23.360;2023-04-24T12:09:40;7.93;;;4.35;;
6388;SDS011;3227;42.654;23.360;2023-04-24T12:12:08;6.68;;;4.60;;
6388;SDS011;3227;42.654;23.360;2023-04-24T12:14:41;7.32;;;4.85;;
6388;SDS011;3227;42.654;23.360;2023-04-24T12:17:13;7.75;;;4.75;;
6388;SDS011;3227;42.654;23.360;2023-04-24T12:19:44;9.25;;;4.75;;
6388;SDS011;3227;42.654;23.360;2023-04-24T12:22:13;11.60;;;5.07;;
6388;SDS011;3227;42.654;23.360;2023-04-24T12:24:57;8.40;;;4.32;;
6388;SDS011;3227;42.654;23.360;2023-04-24T12:27:25;8.75;;;4.30;;
6388;SDS011;3227;42.654;23.360;2023-04-24T12:29:53;8.13;;;4.75;;
6388;SDS011;3227;42.654;23.360;2023-04-24T12:32:22;8.65;;;4.70;;
6388;SDS011;3227;42.654;23.360;2023-04-24T12:34:50;7.47;;;3.60;;
6388;SDS011;3227;42.654;23.360;2023-04-24T12:37:18;9.50;;;3.80;;
6388;SDS011;3227;42.654;23.360;2023-04-24T12:39:58;6.45;;;3.88;;
6388;SDS011;3227;42.654;23.360;2023-04-24T12:42:26;9.30;;;4.07;;
6388;SDS011;3227;42.654;23.360;2023-04-24T12:44:56;9.75;;;4.65;;
6388;SDS011;3227;42.654;23.360;2023-04-24T12:47:24;9.07;;;5.45;;
6388;SDS011;3227;42.654;23.360;2023-04-24T12:49:51;7.30;;;4.40;;
6388;SDS011;3227;42.654;23.360;2023-04-24T12:52:19;8.10;;;4.45;;
6388;SDS011;3227;42.654;23.360;2023-04-24T12:54:46;10.35;;;4.68;;
6388;SDS011;3227;42.654;23.360;2023-04-24T12:57:13;11.15;;;5.40;;
6388;SDS011;3227;42.654;23.360;2023-04-24T12:59:40;9.98;;;4.80;;
6388;SDS011;3227;42.654;23.360;2023-04-24T13:02:09;10.13;;;4.83;;
6388;SDS011;3227;42.654;23.360;2023-04-24T13:04:37;7.75;;;4.90;;
6388;SDS011;3227;42.654;23.360;2023-04-24T13:07:04;10.13;;;4.78;;
6388;SDS011;3227;42.654;23.360;2023-04-24T13:09:34;9.95;;;4.80;;
6388;SDS011;3227;42.654;23.360;2023-04-24T13:12:01;8.27;;;4.63;;
6388;SDS011;3227;42.654;23.360;2023-04-24T13:14:28;8.35;;;4.78;;
6388;SDS011;3227;42.654;23.360;2023-04-24T13:16:54;9.75;;;5.10;;
6388;SDS011;3227;42.654;23.360;2023-04-24T13:19:23;11.63;;;4.90;;
6388;SDS011;3227;42.654;23.360;2023-04-24T13:21:50;7.95;;;4.90;;
6388;SDS011;3227;42.654;23.360;2023-04-24T13:24:17;13.45;;;5.07;;
6388;SDS011;3227;42.654;23.360;2023-04-24T13:26:46;8.65;;;4.78;;
6388;SDS011;3227;42.654;23.360;2023-04-24T13:29:13;9.25;;;4.90;;
6388;SDS011;3227;42.654;23.360;2023-04-24T13:31:40;9.88;;;5.30;;
6388;SDS011;3227;42.654;23.360;2023-04-24T13:34:06;8.90;;;5.10;;
6388;SDS011;3227;42.654;23.360;2023-04-24T13:36:33;8.65;;;5.00;;
6388;SDS011;3227;42.654;23.360;2023-04-24T13:39:00;9.10;;;5.07;;
6388;SDS011;3227;42.654;23.360;2023-04-24T13:41:28;9.88;;;5.15;;
6388;SDS011;3227;42.654;23.360;2023-04-24T13:43:56;7.70;;;5.05;;
6388;SDS011;3227;42.654;23.360;2023-04-24T13:46:23;8.27;;;5.10;;
6388;SDS011;3227;42.654;23.360;2023-04-24T13:48:50;7.47;;;4.82;;
6388;SDS011;3227;42.654;23.360;2023-04-24T13:51:18;7.40;;;4.47;;
6388;SDS011;3227;42.654;23.360;2023-04-24T13:53:45;9.70;;;5.03;;
6388;SDS011;3227;42.654;23.360;2023-04-24T13:56:11;9.30;;;4.72;;
6388;SDS011;3227;42.654;23.360;2023-04-24T13:58:39;9.48;;;4.70;;
6388;SDS011;3227;42.654;23.360;2023-04-24T14:01:07;8.73;;;4.50;;
6388;SDS011;3227;42.654;23.360;2023-04-24T14:03:34;11.77;;;5.05;;
6388;SDS011;3227;42.654;23.360;2023-04-24T14:06:03;7.97;;;5.15;;
6388;SDS011;3227;42.654;23.360;2023-04-24T14:08:31;9.70;;;4.78;;
6388;SDS011;3227;42.654;23.360;2023-04-24T14:10:58;10.68;;;6.10;;
6388;SDS011;3227;42.654;23.360;2023-04-24T14:13:25;9.93;;;5.78;;
6388;SDS011;3227;42.654;23.360;2023-04-24T14:15:52;8.95;;;5.70;;
6388;SDS011;3227;42.654;23.360;2023-04-24T14:18:21;8.57;;;5.35;;
6388;SDS011;3227;42.654;23.360;2023-04-24T14:20:47;15.45;;;8.32;;
6388;SDS011;3227;42.654;23.360;2023-04-24T14:23:15;9.30;;;5.60;;
6388;SDS011;3227;42.654;23.360;2023-04-24T14:25:42;7.13;;;4.03;;
6388;SDS011;3227;42.654;23.360;2023-04-24T14:28:09;7.32;;;4.05;;
6388;SDS011;3227;42.654;23.360;2023-04-24T14:30:35;9.20;;;4.45;;
6388;SDS011;3227;42.654;23.360;2023-04-24T14:33:05;7.25;;;4.00;;
6388;SDS011;3227;42.654;23.360;2023-04-24T14:35:33;8.30;;;3.78;;
6388;SDS011;3227;42.654;23.360;2023-04-24T14:38:00;6.53;;;4.13;;
6388;SDS011;3227;42.654;23.360;2023-04-24T14:40:27;6.22;;;4.13;;
6388;SDS011;3227;42.654;23.360;2023-04-24T14:42:55;7.97;;;4.30;;
6388;SDS011;3227;42.654;23.360;2023-04-24T14:45:22;9.02;;;4.35;;
6388;SDS011;3227;42.654;23.360;2023-04-24T14:47:49;7.90;;;4.00;;
6388;SDS011;3227;42.654;23.360;2023-04-24T14:50:16;11.23;;;4.63;;
6388;SDS011;3227;42.654;23.360;2023-04-24T14:52:44;9.57;;;4.53;;
6388;SDS011;3227;42.654;23.360;2023-04-24T14:55:11;8.00;;;4.60;;
6388;SDS011;3227;42.654;23.360;2023-04-24T14:57:38;8.02;;;4.10;;